sensor_id;sensor_type;location;lat;lon;timestamp;P1;durP1;ratioP1;P2;durP2;ratioP2
8279;SDS011;8335;42.646;23.380;2023-06-22T00:00:00;10.75;;;9.63;;
8279;SDS011;8335;42.646;23.380;2023-06-22T00:02:33;11.85;;;9.60;;
8279;SDS011;8335;42.646;23.380;2023-06-22T00:05:00;12.77;;;9.40;;
8279;SDS011;8335;42.646;23.380;2023-06-22T00:07:26;10.73;;;9.73;;
8279;SDS011;8335;42.646;23.380;2023-06-22T00:09:53;12.48;;;10.20;;
8279;SDS011;8335;42.646;23.380;2023-06-22T00:12:20;14.20;;;10.10;;
8279;SDS011;8335;42.646;23.380;2023-06-22T00:14:47;11.63;;;10.18;;
8279;SDS011;8335;42.646;23.380;2023-06-22T00:17:15;12.18;;;10.77;;
8279;SDS011;8335;42.646;23.380;2023-06-22T00:19:42;11.40;;;10.13;;
8279;SDS011;8335;42.646;23.380;2023-06-22T00:22:08;13.05;;;11.52;;
8279;SDS011;8335;42.646;23.380;2023-06-22T00:24:35;12.75;;;10.73;;
8279;SDS011;8335;42.646;23.380;2023-06-22T00:27:02;14.77;;;10.95;;
8279;SDS011;8335;42.646;23.380;2023-06-22T00:29:30;14.82;;;10.45;;
8279;SDS011;8335;42.646;23.380;2023-06-22T00:31:57;14.20;;;10.18;;
8279;SDS011;8335;42.646;23.380;2023-06-22T00:34:25;12.00;;;10.43;;
8279;SDS011;8335;42.646;23.380;2023-06-22T00:36:52;10.63;;;9.52;;
8279;SDS011;8335;42.646;23.380;2023-06-22T00:39:18;12.05;;;8.70;;
8279;SDS011;8335;42.646;23.380;2023-06-22T00:41:45;12.60;;;9.60;;
8279;SDS011;8335;42.646;23.380;2023-06-22T00:44:12;9.60;;;8.55;;
8279;SDS011;8335;42.646;23.380;2023-06-22T00:46:38;10.77;;;8.93;;
8279;SDS011;8335;42.646;23.380;2023-06-22T00:49:05;15.48;;;9.25;;
8279;SDS011;8335;42.646;23.380;2023-06-22T00:51:34;11.00;;;8.90;;
8279;SDS011;8335;42.646;23.380;2023-06-22T00:54:03;10.80;;;9.40;;
8279;SDS011;8335;42.646;23.380;2023-06-22T00:56:31;11.90;;;9.63;;
8279;SDS011;8335;42.646;23.380;2023-06-22T00:58:58;10.45;;;9.32;;
8279;SDS011;8335;42.646;23.380;2023-06-22T01:01:28;12.25;;;9.25;;
8279;SDS011;8335;42.646;23.380;2023-06-22T01:03:55;10.60;;;8.93;;
8279;SDS011;8335;42.646;23.380;2023-06-22T01:06:25;9.77;;;8.77;;
8279;SDS011;8335;42.646;23.380;2023-06-22T01:09:08;11.07;;;9.30;;
8279;SDS011;8335;42.646;23.380;2023-06-22T01:11:41;11.50;;;8.95;;
8279;SDS011;8335;42.646;23.380;2023-06-22T01:14:12;11.60;;;9.30;;
8279;SDS011;8335;42.646;23.380;2023-06-22T01:16:46;12.45;;;9.60;;
8279;SDS011;8335;42.646;23.380;2023-06-22T01:22:08;10.75;;;9.48;;
8279;SDS011;8335;42.646;23.380;2023-06-22T01:24:41;12.13;;;9.55;;
8279;SDS011;8335;42.646;23.380;2023-06-22T01:27:19;10.93;;;9.63;;
8279;SDS011;8335;42.646;23.380;2023-06-22T01:29:59;10.80;;;9.68;;
8279;SDS011;8335;42.646;23.380;2023-06-22T01:32:30;11.15;;;9.70;;
8279;SDS011;8335;42.646;23.380;2023-06-22T01:34:59;10.40;;;9.30;;
8279;SDS011;8335;42.646;23.380;2023-06-22T01:37:27;12.05;;;9.43;;
8279;SDS011;8335;42.646;23.380;2023-06-22T01:39:57;11.07;;;9.88;;
8279;SDS011;8335;42.646;23.380;2023-06-22T01:42:25;10.85;;;9.48;;
8279;SDS011;8335;42.646;23.380;2023-06-22T01:44:52;15.27;;;10.25;;
8279;SDS011;8335;42.646;23.380;2023-06-22T01:47:21;11.48;;;10.32;;
8279;SDS011;8335;42.646;23.380;2023-06-22T01:49:48;11.82;;;9.65;;
8279;SDS011;8335;42.646;23.380;2023-06-22T01:52:17;10.93;;;9.82;;
8279;SDS011;8335;42.646;23.380;2023-06-22T01:54:46;11.48;;;10.32;;
8279;SDS011;8335;42.646;23.380;2023-06-22T01:57:13;10.70;;;9.45;;
8279;SDS011;8335;42.646;23.380;2023-06-22T01:59:42;11.25;;;10.02;;
8279;SDS011;8335;42.646;23.380;2023-06-22T02:02:15;12.70;;;10.10;;
8279;SDS011;8335;42.646;23.380;2023-06-22T02:04:47;10.80;;;9.75;;
8279;SDS011;8335;42.646;23.380;2023-06-22T02:07:18;11.55;;;10.32;;
8279;SDS011;8335;42.646;23.380;2023-06-22T02:09:46;13.50;;;10.50;;
8279;SDS011;8335;42.646;23.380;2023-06-22T02:12:18;11.05;;;9.73;;
8279;SDS011;8335;42.646;23.380;2023-06-22T02:14:48;11.68;;;9.70;;
8279;SDS011;8335;42.646;23.380;2023-06-22T02:17:16;11.73;;;10.10;;
8279;SDS011;8335;42.646;23.380;2023-06-22T02:19:43;11.73;;;10.52;;
8279;SDS011;8335;42.646;23.380;2023-06-22T02:22:12;12.63;;;11.20;;
8279;SDS011;8335;42.646;23.380;2023-06-22T02:24:38;11.07;;;9.77;;
8279;SDS011;8335;42.646;23.380;2023-06-22T02:27:05;13.13;;;10.10;;
8279;SDS011;8335;42.646;23.380;2023-06-22T02:29:33;10.88;;;9.57;;
8279;SDS011;8335;42.646;23.380;2023-06-22T02:31:59;10.82;;;9.38;;
8279;SDS011;8335;42.646;23.380;2023-06-22T02:34:26;10.43;;;9.38;;
8279;SDS011;8335;42.646;23.380;2023-06-22T02:36:53;13.80;;;9.82;;
8279;SDS011;8335;42.646;23.380;2023-06-22T02:39:22;11.23;;;10.07;;
8279;SDS011;8335;42.646;23.380;2023-06-22T02:41:50;12.02;;;10.73;;
8279;SDS011;8335;42.646;23.380;2023-06-22T02:44:17;10.98;;;9.40;;
8279;SDS011;8335;42.646;23.380;2023-06-22T02:46:44;11.85;;;9.50;;
8279;SDS011;8335;42.646;23.380;2023-06-22T02:49:11;13.07;;;9.77;;
8279;SDS011;8335;42.646;23.380;2023-06-22T02:51:38;12.38;;;10.18;;
8279;SDS011;8335;42.646;23.380;2023-06-22T02:54:08;13.75;;;10.20;;
8279;SDS011;8335;42.646;23.380;2023-06-22T02:56:36;11.20;;;9.85;;
8279;SDS011;8335;42.646;23.380;2023-06-22T02:59:05;13.45;;;10.50;;
8279;SDS011;8335;42.646;23.380;2023-06-22T03:01:32;12.30;;;10.70;;
8279;SDS011;8335;42.646;23.380;2023-06-22T03:04:05;13.30;;;10.48;;
8279;SDS011;8335;42.646;23.380;2023-06-22T03:06:33;11.35;;;10.15;;
8279;SDS011;8335;42.646;23.380;2023-06-22T03:09:00;12.45;;;10.55;;
8279;SDS011;8335;42.646;23.380;2023-06-22T03:11:29;11.10;;;9.98;;
8279;SDS011;8335;42.646;23.380;2023-06-22T03:13:57;11.75;;;10.32;;
8279;SDS011;8335;42.646;23.380;2023-06-22T03:16:24;11.85;;;9.95;;
8279;SDS011;8335;42.646;23.380;2023-06-22T03:18:51;10.55;;;9.07;;
8279;SDS011;8335;42.646;23.380;2023-06-22T03:21:18;11.98;;;9.40;;
8279;SDS011;8335;42.646;23.380;2023-06-22T03:23:45;10.63;;;9.55;;
8279;SDS011;8335;42.646;23.380;2023-06-22T03:26:12;11.75;;;9.88;;
8279;SDS011;8335;42.646;23.380;2023-06-22T03:28:39;13.30;;;9.95;;
8279;SDS011;8335;42.646;23.380;2023-06-22T03:31:07;12.45;;;9.52;;
8279;SDS011;8335;42.646;23.380;2023-06-22T03:33:34;14.88;;;9.68;;
8279;SDS011;8335;42.646;23.380;2023-06-22T03:36:01;11.38;;;9.65;;
8279;SDS011;8335;42.646;23.380;2023-06-22T03:38:29;11.20;;;9.32;;
8279;SDS011;8335;42.646;23.380;2023-06-22T03:40:55;10.32;;;9.32;;
8279;SDS011;8335;42.646;23.380;2023-06-22T03:43:22;13.70;;;9.13;;
8279;SDS011;8335;42.646;23.380;2023-06-22T03:45:49;11.45;;;9.35;;
8279;SDS011;8335;42.646;23.380;2023-06-22T03:48:17;10.65;;;9.40;;
8279;SDS011;8335;42.646;23.380;2023-06-22T03:50:44;13.25;;;9.60;;
8279;SDS011;8335;42.646;23.380;2023-06-22T03:53:11;13.60;;;8.88;;
8279;SDS011;8335;42.646;23.380;2023-06-22T03:55:48;11.32;;;8.15;;
8279;SDS011;8335;42.646;23.380;2023-06-22T03:58:15;10.60;;;9.32;;
8279;SDS011;8335;42.646;23.380;2023-06-22T04:00:44;11.25;;;9.25;;
8279;SDS011;8335;42.646;23.380;2023-06-22T04:03:11;13.23;;;9.18;;
8279;SDS011;8335;42.646;23.380;2023-06-22T04:05:39;13.98;;;8.70;;
8279;SDS011;8335;42.646;23.380;2023-06-22T04:08:06;10.10;;;8.82;;
8279;SDS011;8335;42.646;23.380;2023-06-22T04:10:33;11.30;;;8.90;;
8279;SDS011;8335;42.646;23.380;2023-06-22T04:13:00;12.20;;;8.45;;
8279;SDS011;8335;42.646;23.380;2023-06-22T04:15:27;12.60;;;8.57;;
8279;SDS011;8335;42.646;23.380;2023-06-22T04:17:54;10.30;;;9.13;;
8279;SDS011;8335;42.646;23.380;2023-06-22T04:20:22;14.80;;;9.27;;
8279;SDS011;8335;42.646;23.380;2023-06-22T04:22:52;15.68;;;9.32;;
8279;SDS011;8335;42.646;23.380;2023-06-22T04:25:19;16.00;;;10.18;;
8279;SDS011;8335;42.646;23.380;2023-06-22T04:27:46;11.55;;;10.35;;
8279;SDS011;8335;42.646;23.380;2023-06-22T04:30:13;11.27;;;10.15;;
8279;SDS011;8335;42.646;23.380;2023-06-22T04:32:41;13.23;;;10.32;;
8279;SDS011;8335;42.646;23.380;2023-06-22T04:35:08;16.23;;;9.02;;
8279;SDS011;8335;42.646;23.380;2023-06-22T04:37:35;12.40;;;10.00;;
8279;SDS011;8335;42.646;23.380;2023-06-22T04:40:05;15.77;;;9.90;;
8279;SDS011;8335;42.646;23.380;2023-06-22T04:42:33;12.75;;;10.50;;
8279;SDS011;8335;42.646;23.380;2023-06-22T04:45:00;11.43;;;9.98;;
8279;SDS011;8335;42.646;23.380;2023-06-22T04:47:27;10.70;;;9.00;;
8279;SDS011;8335;42.646;23.380;2023-06-22T04:49:54;13.30;;;9.45;;
8279;SDS011;8335;42.646;23.380;2023-06-22T04:52:21;11.48;;;9.35;;
8279;SDS011;8335;42.646;23.380;2023-06-22T04:54:49;14.02;;;9.02;;
8279;SDS011;8335;42.646;23.380;2023-06-22T04:57:22;10.40;;;9.15;;
8279;SDS011;8335;42.646;23.380;2023-06-22T04:59:57;12.90;;;8.95;;
8279;SDS011;8335;42.646;23.380;2023-06-22T05:02:41;9.82;;;8.82;;
8279;SDS011;8335;42.646;23.380;2023-06-22T05:05:08;21.67;;;14.05;;
8279;SDS011;8335;42.646;23.380;2023-06-22T05:07:38;21.80;;;16.95;;
8279;SDS011;8335;42.646;23.380;2023-06-22T05:10:08;18.63;;;11.65;;
8279;SDS011;8335;42.646;23.380;2023-06-22T05:12:37;13.75;;;10.70;;
8279;SDS011;8335;42.646;23.380;2023-06-22T05:15:05;13.63;;;10.48;;
8279;SDS011;8335;42.646;23.380;2023-06-22T05:17:33;15.38;;;9.90;;
8279;SDS011;8335;42.646;23.380;2023-06-22T05:20:00;13.10;;;10.07;;
8279;SDS011;8335;42.646;23.380;2023-06-22T05:22:28;13.82;;;10.77;;
8279;SDS011;8335;42.646;23.380;2023-06-22T05:24:55;13.98;;;9.70;;
8279;SDS011;8335;42.646;23.380;2023-06-22T05:27:22;12.32;;;9.25;;
8279;SDS011;8335;42.646;23.380;2023-06-22T05:29:50;13.18;;;9.05;;
8279;SDS011;8335;42.646;23.380;2023-06-22T05:32:17;18.27;;;11.80;;
8279;SDS011;8335;42.646;23.380;2023-06-22T05:34:43;17.33;;;14.18;;
8279;SDS011;8335;42.646;23.380;2023-06-22T05:37:10;13.35;;;10.35;;
8279;SDS011;8335;42.646;23.380;2023-06-22T05:39:38;15.10;;;10.68;;
8279;SDS011;8335;42.646;23.380;2023-06-22T05:42:05;15.60;;;10.98;;
8279;SDS011;8335;42.646;23.380;2023-06-22T05:44:32;16.58;;;11.07;;
8279;SDS011;8335;42.646;23.380;2023-06-22T05:47:00;18.00;;;10.15;;
8279;SDS011;8335;42.646;23.380;2023-06-22T05:49:28;13.52;;;10.38;;
8279;SDS011;8335;42.646;23.380;2023-06-22T05:51:57;11.90;;;10.32;;
8279;SDS011;8335;42.646;23.380;2023-06-22T05:54:25;16.65;;;10.77;;
8279;SDS011;8335;42.646;23.380;2023-06-22T05:56:51;16.83;;;10.07;;
8279;SDS011;8335;42.646;23.380;2023-06-22T05:59:18;12.20;;;10.35;;
8279;SDS011;8335;42.646;23.380;2023-06-22T06:01:45;13.13;;;9.98;;
8279;SDS011;8335;42.646;23.380;2023-06-22T06:04:16;14.35;;;9.50;;
8279;SDS011;8335;42.646;23.380;2023-06-22T06:06:43;12.55;;;9.55;;
8279;SDS011;8335;42.646;23.380;2023-06-22T06:09:10;13.02;;;9.95;;
8279;SDS011;8335;42.646;23.380;2023-06-22T06:11:37;15.38;;;9.52;;
8279;SDS011;8335;42.646;23.380;2023-06-22T06:14:04;13.20;;;9.07;;
8279;SDS011;8335;42.646;23.380;2023-06-22T06:16:31;18.73;;;9.23;;
8279;SDS011;8335;42.646;23.380;2023-06-22T06:18:58;9.90;;;8.90;;
8279;SDS011;8335;42.646;23.380;2023-06-22T06:21:26;11.45;;;8.43;;
8279;SDS011;8335;42.646;23.380;2023-06-22T06:23:53;16.40;;;13.07;;
8279;SDS011;8335;42.646;23.380;2023-06-22T06:26:20;33.63;;;22.90;;
8279;SDS011;8335;42.646;23.380;2023-06-22T06:28:52;26.80;;;13.35;;
8279;SDS011;8335;42.646;23.380;2023-06-22T06:31:19;18.13;;;8.73;;
8279;SDS011;8335;42.646;23.380;2023-06-22T06:33:46;19.63;;;9.65;;
8279;SDS011;8335;42.646;23.380;2023-06-22T06:36:13;13.10;;;9.00;;
8279;SDS011;8335;42.646;23.380;2023-06-22T06:38:41;10.32;;;8.80;;
8279;SDS011;8335;42.646;23.380;2023-06-22T06:41:08;12.93;;;8.65;;
8279;SDS011;8335;42.646;23.380;2023-06-22T06:43:35;14.70;;;9.70;;
8279;SDS011;8335;42.646;23.380;2023-06-22T06:46:02;12.93;;;8.82;;
8279;SDS011;8335;42.646;23.380;2023-06-22T06:48:29;12.85;;;8.82;;
8279;SDS011;8335;42.646;23.380;2023-06-22T06:50:56;8.88;;;7.88;;
8279;SDS011;8335;42.646;23.380;2023-06-22T06:53:22;13.68;;;8.85;;
8279;SDS011;8335;42.646;23.380;2023-06-22T06:55:50;11.75;;;8.38;;
8279;SDS011;8335;42.646;23.380;2023-06-22T06:58:17;11.32;;;8.05;;
8279;SDS011;8335;42.646;23.380;2023-06-22T07:00:44;10.73;;;7.78;;
8279;SDS011;8335;42.646;23.380;2023-06-22T07:03:11;12.02;;;7.70;;
8279;SDS011;8335;42.646;23.380;2023-06-22T07:05:38;11.27;;;8.52;;
8279;SDS011;8335;42.646;23.380;2023-06-22T07:08:04;11.45;;;7.72;;
8279;SDS011;8335;42.646;23.380;2023-06-22T07:10:31;9.77;;;7.63;;
8279;SDS011;8335;42.646;23.380;2023-06-22T07:12:59;13.20;;;8.07;;
8279;SDS011;8335;42.646;23.380;2023-06-22T07:15:26;11.27;;;8.57;;
8279;SDS011;8335;42.646;23.380;2023-06-22T07:17:53;14.90;;;8.45;;
8279;SDS011;8335;42.646;23.380;2023-06-22T07:20:20;17.23;;;10.75;;
8279;SDS011;8335;42.646;23.380;2023-06-22T07:22:46;23.85;;;17.27;;
8279;SDS011;8335;42.646;23.380;2023-06-22T07:25:13;16.05;;;11.80;;
8279;SDS011;8335;42.646;23.380;2023-06-22T07:27:43;17.08;;;10.25;;
8279;SDS011;8335;42.646;23.380;2023-06-22T07:30:12;17.20;;;9.75;;
8279;SDS011;8335;42.646;23.380;2023-06-22T07:32:39;20.70;;;10.70;;
8279;SDS011;8335;42.646;23.380;2023-06-22T07:35:07;13.77;;;9.80;;
8279;SDS011;8335;42.646;23.380;2023-06-22T07:37:34;12.30;;;9.07;;
8279;SDS011;8335;42.646;23.380;2023-06-22T07:40:01;16.60;;;10.32;;
8279;SDS011;8335;42.646;23.380;2023-06-22T07:42:31;16.30;;;9.82;;
8279;SDS011;8335;42.646;23.380;2023-06-22T07:44:59;21.23;;;16.80;;
8279;SDS011;8335;42.646;23.380;2023-06-22T07:47:27;26.52;;;17.70;;
8279;SDS011;8335;42.646;23.380;2023-06-22T07:49:54;16.33;;;10.70;;
8279;SDS011;8335;42.646;23.380;2023-06-22T07:52:23;15.75;;;9.68;;
8279;SDS011;8335;42.646;23.380;2023-06-22T07:54:50;23.75;;;15.57;;
8279;SDS011;8335;42.646;23.380;2023-06-22T07:57:17;19.45;;;11.32;;
8279;SDS011;8335;42.646;23.380;2023-06-22T07:59:44;12.95;;;9.15;;
8279;SDS011;8335;42.646;23.380;2023-06-22T08:02:10;14.45;;;8.90;;
8279;SDS011;8335;42.646;23.380;2023-06-22T08:04:39;10.35;;;8.27;;
8279;SDS011;8335;42.646;23.380;2023-06-22T08:07:06;9.77;;;8.10;;
8279;SDS011;8335;42.646;23.380;2023-06-22T08:09:32;12.10;;;9.45;;
8279;SDS011;8335;42.646;23.380;2023-06-22T08:11:59;13.85;;;9.82;;
8279;SDS011;8335;42.646;23.380;2023-06-22T08:14:26;12.82;;;9.40;;
8279;SDS011;8335;42.646;23.380;2023-06-22T08:16:54;10.30;;;9.02;;
8279;SDS011;8335;42.646;23.380;2023-06-22T08:19:20;12.30;;;9.02;;
8279;SDS011;8335;42.646;23.380;2023-06-22T08:21:49;16.55;;;8.93;;
8279;SDS011;8335;42.646;23.380;2023-06-22T08:24:15;12.45;;;8.65;;
8279;SDS011;8335;42.646;23.380;2023-06-22T08:26:42;12.52;;;8.95;;
8279;SDS011;8335;42.646;23.380;2023-06-22T08:29:09;10.23;;;9.00;;
8279;SDS011;8335;42.646;23.380;2023-06-22T08:31:35;12.13;;;10.07;;
8279;SDS011;8335;42.646;23.380;2023-06-22T08:34:02;15.20;;;9.60;;
8279;SDS011;8335;42.646;23.380;2023-06-22T08:36:29;15.00;;;9.65;;
8279;SDS011;8335;42.646;23.380;2023-06-22T08:38:59;14.20;;;8.77;;
8279;SDS011;8335;42.646;23.380;2023-06-22T08:41:26;15.90;;;9.88;;
8279;SDS011;8335;42.646;23.380;2023-06-22T08:43:53;18.23;;;9.55;;
8279;SDS011;8335;42.646;23.380;2023-06-22T08:46:19;14.10;;;9.90;;
8279;SDS011;8335;42.646;23.380;2023-06-22T08:48:48;14.02;;;10.55;;
8279;SDS011;8335;42.646;23.380;2023-06-22T08:51:15;12.93;;;10.23;;
8279;SDS011;8335;42.646;23.380;2023-06-22T08:53:42;16.73;;;10.68;;
8279;SDS011;8335;42.646;23.380;2023-06-22T08:56:11;10.98;;;9.73;;
8279;SDS011;8335;42.646;23.380;2023-06-22T08:58:38;18.73;;;10.38;;
8279;SDS011;8335;42.646;23.380;2023-06-22T09:01:05;13.82;;;9.23;;
8279;SDS011;8335;42.646;23.380;2023-06-22T09:03:31;12.52;;;9.02;;
8279;SDS011;8335;42.646;23.380;2023-06-22T09:06:01;16.23;;;9.13;;
8279;SDS011;8335;42.646;23.380;2023-06-22T09:08:28;15.82;;;9.07;;
8279;SDS011;8335;42.646;23.380;2023-06-22T09:10:54;15.48;;;9.68;;
8279;SDS011;8335;42.646;23.380;2023-06-22T09:13:23;10.00;;;9.00;;
8279;SDS011;8335;42.646;23.380;2023-06-22T09:15:50;12.38;;;9.35;;
8279;SDS011;8335;42.646;23.380;2023-06-22T09:18:17;11.98;;;9.25;;
8279;SDS011;8335;42.646;23.380;2023-06-22T09:20:44;13.48;;;8.85;;
8279;SDS011;8335;42.646;23.380;2023-06-22T09:23:11;11.63;;;8.00;;
8279;SDS011;8335;42.646;23.380;2023-06-22T09:25:38;12.57;;;8.35;;
8279;SDS011;8335;42.646;23.380;2023-06-22T09:28:06;11.02;;;8.00;;
8279;SDS011;8335;42.646;23.380;2023-06-22T09:30:34;13.25;;;8.93;;
8279;SDS011;8335;42.646;23.380;2023-06-22T09:33:01;14.85;;;9.13;;
8279;SDS011;8335;42.646;23.380;2023-06-22T09:35:27;11.02;;;9.77;;
8279;SDS011;8335;42.646;23.380;2023-06-22T09:37:54;16.65;;;10.07;;
8279;SDS011;8335;42.646;23.380;2023-06-22T09:40:21;10.68;;;8.77;;
8279;SDS011;8335;42.646;23.380;2023-06-22T09:42:47;9.15;;;8.15;;
8279;SDS011;8335;42.646;23.380;2023-06-22T09:45:14;8.95;;;7.72;;
8279;SDS011;8335;42.646;23.380;2023-06-22T09:47:42;8.73;;;7.40;;
8279;SDS011;8335;42.646;23.380;2023-06-22T09:50:09;8.32;;;7.53;;
8279;SDS011;8335;42.646;23.380;2023-06-22T09:52:36;9.82;;;7.47;;
8279;SDS011;8335;42.646;23.380;2023-06-22T09:55:03;9.30;;;7.30;;
8279;SDS011;8335;42.646;23.380;2023-06-22T09:57:30;9.93;;;6.82;;
8279;SDS011;8335;42.646;23.380;2023-06-22T09:59:59;10.68;;;9.57;;
8279;SDS011;8335;42.646;23.380;2023-06-22T10:02:25;9.35;;;8.45;;
8279;SDS011;8335;42.646;23.380;2023-06-22T10:04:53;9.68;;;8.30;;
8279;SDS011;8335;42.646;23.380;2023-06-22T10:07:20;12.00;;;8.02;;
8279;SDS011;8335;42.646;23.380;2023-06-22T10:09:47;11.73;;;8.55;;
8279;SDS011;8335;42.646;23.380;2023-06-22T10:12:14;8.82;;;8.02;;
8279;SDS011;8335;42.646;23.380;2023-06-22T10:14:41;11.07;;;8.10;;
8279;SDS011;8335;42.646;23.380;2023-06-22T10:17:08;14.38;;;7.82;;
8279;SDS011;8335;42.646;23.380;2023-06-22T10:19:35;8.95;;;8.05;;
8279;SDS011;8335;42.646;23.380;2023-06-22T10:22:05;8.48;;;7.57;;
8279;SDS011;8335;42.646;23.380;2023-06-22T10:24:32;9.15;;;7.75;;
8279;SDS011;8335;42.646;23.380;2023-06-22T10:26:58;12.60;;;7.88;;
8279;SDS011;8335;42.646;23.380;2023-06-22T10:29:25;9.30;;;8.35;;
8279;SDS011;8335;42.646;23.380;2023-06-22T10:31:52;15.18;;;8.75;;
8279;SDS011;8335;42.646;23.380;2023-06-22T10:34:19;8.30;;;7.50;;
8279;SDS011;8335;42.646;23.380;2023-06-22T10:36:46;9.52;;;7.80;;
8279;SDS011;8335;42.646;23.380;2023-06-22T10:39:15;12.25;;;8.35;;
8279;SDS011;8335;42.646;23.380;2023-06-22T10:41:42;10.50;;;8.13;;
8279;SDS011;8335;42.646;23.380;2023-06-22T10:44:09;7.47;;;6.65;;
8279;SDS011;8335;42.646;23.380;2023-06-22T10:46:37;8.85;;;6.95;;
8279;SDS011;8335;42.646;23.380;2023-06-22T10:49:04;12.30;;;7.53;;
8279;SDS011;8335;42.646;23.380;2023-06-22T10:51:31;8.60;;;7.38;;
8279;SDS011;8335;42.646;23.380;2023-06-22T10:53:58;9.77;;;7.70;;
8279;SDS011;8335;42.646;23.380;2023-06-22T10:56:30;7.95;;;7.15;;
8279;SDS011;8335;42.646;23.380;2023-06-22T10:58:58;10.20;;;7.80;;
8279;SDS011;8335;42.646;23.380;2023-06-22T11:01:28;9.20;;;7.50;;
8279;SDS011;8335;42.646;23.380;2023-06-22T11:03:56;9.00;;;7.18;;
8279;SDS011;8335;42.646;23.380;2023-06-22T11:06:23;9.60;;;8.05;;
8279;SDS011;8335;42.646;23.380;2023-06-22T11:08:50;9.77;;;7.80;;
8279;SDS011;8335;42.646;23.380;2023-06-22T11:11:17;10.73;;;8.10;;
8279;SDS011;8335;42.646;23.380;2023-06-22T11:13:45;8.75;;;7.75;;
8279;SDS011;8335;42.646;23.380;2023-06-22T11:16:12;12.25;;;8.70;;
8279;SDS011;8335;42.646;23.380;2023-06-22T11:18:39;11.93;;;7.90;;
8279;SDS011;8335;42.646;23.380;2023-06-22T11:21:06;12.65;;;7.65;;
8279;SDS011;8335;42.646;23.380;2023-06-22T11:23:33;9.63;;;7.50;;
8279;SDS011;8335;42.646;23.380;2023-06-22T11:25:59;9.32;;;7.60;;
8279;SDS011;8335;42.646;23.380;2023-06-22T11:28:26;10.70;;;8.75;;
8279;SDS011;8335;42.646;23.380;2023-06-22T11:30:55;9.60;;;7.90;;
8279;SDS011;8335;42.646;23.380;2023-06-22T11:33:21;9.82;;;7.32;;
8279;SDS011;8335;42.646;23.380;2023-06-22T11:35:48;7.90;;;7.05;;
8279;SDS011;8335;42.646;23.380;2023-06-22T11:38:15;10.90;;;7.95;;
8279;SDS011;8335;42.646;23.380;2023-06-22T11:40:42;11.55;;;7.90;;
8279;SDS011;8335;42.646;23.380;2023-06-22T11:43:08;8.25;;;7.45;;
8279;SDS011;8335;42.646;23.380;2023-06-22T11:45:35;9.70;;;7.47;;
8279;SDS011;8335;42.646;23.380;2023-06-22T11:48:03;7.90;;;7.10;;
8279;SDS011;8335;42.646;23.380;2023-06-22T11:50:30;8.68;;;7.78;;
8279;SDS011;8335;42.646;23.380;2023-06-22T11:53:00;8.35;;;7.55;;
8279;SDS011;8335;42.646;23.380;2023-06-22T11:55:27;8.63;;;7.78;;
8279;SDS011;8335;42.646;23.380;2023-06-22T11:57:55;7.50;;;6.72;;
8279;SDS011;8335;42.646;23.380;2023-06-22T12:00:25;8.45;;;7.25;;
8279;SDS011;8335;42.646;23.380;2023-06-22T12:02:52;8.68;;;7.88;;
8279;SDS011;8335;42.646;23.380;2023-06-22T12:05:20;8.52;;;7.75;;
8279;SDS011;8335;42.646;23.380;2023-06-22T12:07:47;9.50;;;7.53;;
8279;SDS011;8335;42.646;23.380;2023-06-22T12:10:14;9.98;;;7.65;;
8279;SDS011;8335;42.646;23.380;2023-06-22T12:12:41;8.60;;;7.80;;
8279;SDS011;8335;42.646;23.380;2023-06-22T12:15:09;9.02;;;7.80;;
8279;SDS011;8335;42.646;23.380;2023-06-22T12:17:36;8.98;;;8.07;;
8279;SDS011;8335;42.646;23.380;2023-06-22T12:20:04;15.60;;;8.80;;
8279;SDS011;8335;42.646;23.380;2023-06-22T12:22:34;10.70;;;8.63;;
8279;SDS011;8335;42.646;23.380;2023-06-22T12:25:03;14.15;;;8.15;;
8279;SDS011;8335;42.646;23.380;2023-06-22T12:27:30;12.02;;;8.55;;
8279;SDS011;8335;42.646;23.380;2023-06-22T12:29:56;14.82;;;8.50;;
8279;SDS011;8335;42.646;23.380;2023-06-22T12:32:23;11.48;;;8.13;;
8279;SDS011;8335;42.646;23.380;2023-06-22T12:34:50;13.48;;;9.23;;
8279;SDS011;8335;42.646;23.380;2023-06-22T12:37:17;8.95;;;8.05;;
8279;SDS011;8335;42.646;23.380;2023-06-22T12:39:45;10.73;;;8.80;;
8279;SDS011;8335;42.646;23.380;2023-06-22T12:42:12;12.48;;;8.98;;
8279;SDS011;8335;42.646;23.380;2023-06-22T12:44:39;12.48;;;8.38;;
8279;SDS011;8335;42.646;23.380;2023-06-22T12:47:06;18.50;;;9.95;;
8279;SDS011;8335;42.646;23.380;2023-06-22T12:49:33;12.93;;;9.60;;
8279;SDS011;8335;42.646;23.380;2023-06-22T12:52:00;18.45;;;9.38;;
8279;SDS011;8335;42.646;23.380;2023-06-22T12:54:27;17.85;;;10.60;;
8279;SDS011;8335;42.646;23.380;2023-06-22T12:56:56;16.05;;;10.20;;
8279;SDS011;8335;42.646;23.380;2023-06-22T12:59:22;16.00;;;9.85;;
8279;SDS011;8335;42.646;23.380;2023-06-22T13:01:49;13.60;;;10.48;;
8279;SDS011;8335;42.646;23.380;2023-06-22T13:04:16;21.75;;;11.02;;
8279;SDS011;8335;42.646;23.380;2023-06-22T13:06:43;16.20;;;10.40;;
8279;SDS011;8335;42.646;23.380;2023-06-22T13:09:12;14.45;;;10.18;;
8279;SDS011;8335;42.646;23.380;2023-06-22T13:11:40;12.25;;;9.70;;
8279;SDS011;8335;42.646;23.380;2023-06-22T13:14:08;16.00;;;10.55;;
8279;SDS011;8335;42.646;23.380;2023-06-22T13:16:35;14.45;;;10.27;;
8279;SDS011;8335;42.646;23.380;2023-06-22T13:19:02;17.45;;;10.68;;
8279;SDS011;8335;42.646;23.380;2023-06-22T13:21:29;15.35;;;11.15;;
8279;SDS011;8335;42.646;23.380;2023-06-22T13:23:56;15.57;;;11.73;;
8279;SDS011;8335;42.646;23.380;2023-06-22T13:26:24;14.18;;;11.30;;
8279;SDS011;8335;42.646;23.380;2023-06-22T13:28:51;13.88;;;11.00;;
8279;SDS011;8335;42.646;23.380;2023-06-22T13:31:20;12.43;;;10.23;;
8279;SDS011;8335;42.646;23.380;2023-06-22T13:33:47;12.77;;;10.13;;
8279;SDS011;8335;42.646;23.380;2023-06-22T13:36:14;14.38;;;10.25;;
8279;SDS011;8335;42.646;23.380;2023-06-22T13:38:42;13.77;;;9.70;;
8279;SDS011;8335;42.646;23.380;2023-06-22T13:41:09;12.20;;;10.13;;
8279;SDS011;8335;42.646;23.380;2023-06-22T13:43:35;12.88;;;10.50;;
8279;SDS011;8335;42.646;23.380;2023-06-22T13:46:02;15.15;;;10.00;;
8279;SDS011;8335;42.646;23.380;2023-06-22T13:48:32;13.02;;;9.52;;
8279;SDS011;8335;42.646;23.380;2023-06-22T13:50:59;13.20;;;10.23;;
8279;SDS011;8335;42.646;23.380;2023-06-22T13:53:26;12.60;;;9.05;;
8279;SDS011;8335;42.646;23.380;2023-06-22T13:55:53;14.55;;;9.98;;
8279;SDS011;8335;42.646;23.380;2023-06-22T13:58:19;11.88;;;8.93;;
8279;SDS011;8335;42.646;23.380;2023-06-22T14:00:46;12.82;;;8.93;;
8279;SDS011;8335;42.646;23.380;2023-06-22T14:03:14;12.07;;;9.02;;
8279;SDS011;8335;42.646;23.380;2023-06-22T14:05:43;10.45;;;8.77;;
8279;SDS011;8335;42.646;23.380;2023-06-22T14:08:11;14.43;;;9.02;;
8279;SDS011;8335;42.646;23.380;2023-06-22T14:10:38;15.70;;;9.25;;
8279;SDS011;8335;42.646;23.380;2023-06-22T14:13:05;15.60;;;11.35;;
8279;SDS011;8335;42.646;23.380;2023-06-22T14:15:32;14.88;;;10.90;;
8279;SDS011;8335;42.646;23.380;2023-06-22T14:17:59;15.82;;;10.43;;
8279;SDS011;8335;42.646;23.380;2023-06-22T14:20:26;13.95;;;10.63;;
8279;SDS011;8335;42.646;23.380;2023-06-22T14:22:55;15.68;;;11.18;;
8279;SDS011;8335;42.646;23.380;2023-06-22T14:25:22;19.23;;;12.75;;
8279;SDS011;8335;42.646;23.380;2023-06-22T14:27:48;17.77;;;11.88;;
8279;SDS011;8335;42.646;23.380;2023-06-22T14:30:15;15.10;;;11.57;;
8279;SDS011;8335;42.646;23.380;2023-06-22T14:32:43;18.77;;;11.85;;
8279;SDS011;8335;42.646;23.380;2023-06-22T14:35:11;14.90;;;11.68;;
8279;SDS011;8335;42.646;23.380;2023-06-22T14:37:38;16.42;;;12.13;;
8279;SDS011;8335;42.646;23.380;2023-06-22T14:40:06;17.17;;;11.75;;
8279;SDS011;8335;42.646;23.380;2023-06-22T14:42:33;15.65;;;12.25;;
8279;SDS011;8335;42.646;23.380;2023-06-22T14:45:00;17.92;;;13.05;;
8279;SDS011;8335;42.646;23.380;2023-06-22T14:47:27;13.80;;;11.48;;
8279;SDS011;8335;42.646;23.380;2023-06-22T14:49:54;20.65;;;12.05;;